MDW weather

Public forecast

Using degrees Fahrenheit for public forecast. Weather courtesy of forecast.io.

Current aviation weather report (METAR) for Chicago Midway International Airport

Retrieved 2020/08/13 01:53 UTC (1 hour ago):

KMDW 130153Z 10008KT 10SM FEW200 FEW250 24/17 A3007 RMK AO2 SLP172 T02440167

Aviation forecast (TAF) for Chicago Midway International Airport

Retrieved 2020-08-13 00:30 UTC (2 hours ago):

TAF KMDW 122328Z 1300/1406 08008KT P6SM FEW300